createdAt,value
2022-08-30T00:00:51.799Z,1008.66
2022-08-30T00:03:51.887Z,1008.64
2022-08-30T00:06:51.801Z,1008.59
2022-08-30T00:09:51.803Z,1008.54
2022-08-30T00:12:51.799Z,1008.54
2022-08-30T00:15:51.844Z,1008.59
2022-08-30T00:18:51.964Z,1008.54
2022-08-30T00:21:51.796Z,1008.57
2022-08-30T00:24:51.806Z,1008.5
2022-08-30T00:27:51.797Z,1008.52
2022-08-30T00:30:51.844Z,1008.5
2022-08-30T00:33:51.796Z,1008.5
2022-08-30T00:36:51.805Z,1008.46
2022-08-30T00:39:51.811Z,1008.5
2022-08-30T00:42:53.654Z,1008.49
2022-08-30T00:45:51.851Z,1008.47
2022-08-30T00:48:51.807Z,1008.47
2022-08-30T00:51:51.814Z,1008.44
2022-08-30T00:54:51.801Z,1008.49
2022-08-30T00:57:51.805Z,1008.55
2022-08-30T01:00:51.803Z,1008.59
2022-08-30T01:03:51.801Z,1008.6
2022-08-30T01:06:51.799Z,1008.65
2022-08-30T01:09:51.798Z,1008.69
2022-08-30T01:12:51.801Z,1008.73
2022-08-30T01:15:51.826Z,1008.75
2022-08-30T01:18:51.806Z,1008.69
2022-08-30T01:21:51.803Z,1008.66
2022-08-30T01:24:51.805Z,1008.66
2022-08-30T01:27:51.811Z,1008.68
2022-08-30T01:30:51.830Z,1008.69
2022-08-30T01:33:51.805Z,1008.7
2022-08-30T01:36:51.800Z,1008.67
2022-08-30T01:39:51.805Z,1008.64
2022-08-30T01:42:51.804Z,1008.61
2022-08-30T01:45:51.832Z,1008.54
2022-08-30T01:48:53.870Z,1008.52
2022-08-30T01:51:51.807Z,1008.46
2022-08-30T01:54:51.802Z,1008.48
2022-08-30T01:57:51.806Z,1008.56
2022-08-30T02:00:51.805Z,1008.56
2022-08-30T02:03:51.913Z,1008.53
2022-08-30T02:06:51.797Z,1008.5
2022-08-30T02:09:51.808Z,1008.47
2022-08-30T02:12:51.802Z,1008.44
2022-08-30T02:15:51.803Z,1008.42
2022-08-30T02:18:51.803Z,1008.43
2022-08-30T02:21:51.808Z,1008.45
2022-08-30T02:24:51.813Z,1008.5
2022-08-30T02:27:51.798Z,1008.44
2022-08-30T02:30:51.852Z,1008.49
2022-08-30T02:33:51.816Z,1008.51
2022-08-30T02:36:51.795Z,1008.51
2022-08-30T02:39:51.925Z,1008.47
2022-08-30T02:42:51.811Z,1008.48
2022-08-30T02:45:51.827Z,1008.57
2022-08-30T02:48:51.813Z,1008.56
2022-08-30T02:51:51.812Z,1008.51
2022-08-30T02:54:51.800Z,1008.49
2022-08-30T02:57:51.804Z,1008.53
2022-08-30T03:00:51.821Z,1008.48
2022-08-30T03:03:51.811Z,1008.38
2022-08-30T03:06:51.817Z,1008.34
2022-08-30T03:09:51.818Z,1008.39
2022-08-30T03:12:51.809Z,1008.34
2022-08-30T03:15:51.806Z,1008.35
2022-08-30T03:18:51.820Z,1008.38
2022-08-30T03:21:51.810Z,1008.35
2022-08-30T03:24:51.809Z,1008.27
2022-08-30T03:27:51.818Z,1008.27
2022-08-30T03:30:51.812Z,1008.29
2022-08-30T03:33:51.812Z,1008.28
2022-08-30T03:36:51.807Z,1008.25
2022-08-30T03:39:51.817Z,1008.21
2022-08-30T03:42:51.811Z,1008.22
2022-08-30T03:45:51.865Z,1008.24
2022-08-30T03:48:51.815Z,1008.28
2022-08-30T03:51:51.811Z,1008.25
2022-08-30T03:54:51.803Z,1008.25
2022-08-30T03:57:52.019Z,1008.3
2022-08-30T04:00:51.875Z,1008.28
2022-08-30T04:03:51.818Z,1008.24
2022-08-30T04:06:51.816Z,1008.21
2022-08-30T04:09:51.820Z,1008.23
2022-08-30T04:12:51.824Z,1008.27
2022-08-30T04:15:51.814Z,1008.3
2022-08-30T04:18:51.812Z,1008.33
2022-08-30T04:21:51.814Z,1008.33
2022-08-30T04:24:51.815Z,1008.33
2022-08-30T04:27:51.817Z,1008.38
2022-08-30T04:30:51.805Z,1008.36
2022-08-30T04:33:51.817Z,1008.35
2022-08-30T04:36:51.816Z,1008.33
2022-08-30T04:39:51.816Z,1008.3
2022-08-30T04:42:51.815Z,1008.32
2022-08-30T04:45:51.873Z,1008.45
2022-08-30T04:48:51.823Z,1008.41
2022-08-30T04:51:51.837Z,1008.37
2022-08-30T04:54:51.823Z,1008.42
2022-08-30T04:57:51.821Z,1008.43
2022-08-30T05:00:51.847Z,1008.45
2022-08-30T05:03:51.821Z,1008.49
2022-08-30T05:06:51.816Z,1008.55
2022-08-30T05:09:51.817Z,1008.55
2022-08-30T05:12:51.806Z,1008.56
2022-08-30T05:15:51.880Z,1008.59
2022-08-30T05:18:51.821Z,1008.61
2022-08-30T05:21:51.825Z,1008.62
2022-08-30T05:24:51.823Z,1008.63
2022-08-30T05:27:51.822Z,1008.66
2022-08-30T05:30:51.820Z,1008.71
2022-08-30T05:33:51.827Z,1008.73
2022-08-30T05:36:51.821Z,1008.76
2022-08-30T05:39:51.999Z,1008.78
2022-08-30T05:42:51.855Z,1008.78
2022-08-30T05:45:51.837Z,1008.83
2022-08-30T05:48:51.835Z,1008.85
2022-08-30T05:51:51.832Z,1008.84
2022-08-30T05:54:51.832Z,1008.87
2022-08-30T05:57:51.842Z,1008.85
2022-08-30T06:00:51.827Z,1008.85
2022-08-30T06:03:51.832Z,1008.86
2022-08-30T06:06:51.842Z,1008.91
2022-08-30T06:09:51.839Z,1008.92
2022-08-30T06:12:51.836Z,1008.92
2022-08-30T06:15:51.855Z,1008.88
2022-08-30T06:18:51.837Z,1008.88
2022-08-30T06:21:51.845Z,1008.83
2022-08-30T06:24:57.215Z,1008.79
2022-08-30T06:27:54.515Z,1008.79
2022-08-30T06:30:51.863Z,1008.79
2022-08-30T06:33:51.835Z,1008.8
2022-08-30T06:36:51.833Z,1008.77
2022-08-30T06:39:51.838Z,1008.8
2022-08-30T06:42:51.847Z,1008.83
2022-08-30T06:45:51.836Z,1008.84
2022-08-30T06:48:51.845Z,1008.82
2022-08-30T06:51:51.835Z,1008.85
2022-08-30T06:54:51.832Z,1008.83
2022-08-30T06:57:51.839Z,1008.87
2022-08-30T07:00:51.851Z,1008.88
2022-08-30T07:03:51.844Z,1008.86
2022-08-30T07:06:51.861Z,1008.92
2022-08-30T07:09:51.855Z,1008.93
2022-08-30T07:12:51.844Z,1008.97
2022-08-30T07:15:51.905Z,1008.92
2022-08-30T07:18:51.852Z,1008.91
2022-08-30T07:21:51.852Z,1008.95
2022-08-30T07:24:51.845Z,1008.97
2022-08-30T07:27:51.860Z,1009.01
2022-08-30T07:30:51.850Z,1009.02
2022-08-30T07:33:51.848Z,1009.08
2022-08-30T07:36:51.848Z,1009.09
2022-08-30T07:39:51.850Z,1009.07
2022-08-30T07:42:51.862Z,1009.07
2022-08-30T07:45:51.865Z,1009.11
2022-08-30T07:48:51.851Z,1009.08
2022-08-30T07:51:51.922Z,1009.07
2022-08-30T07:54:52.887Z,1009.1
2022-08-30T07:57:51.925Z,1009.1
2022-08-30T08:00:51.861Z,1009.1
2022-08-30T08:03:51.855Z,1009.1
2022-08-30T08:06:51.865Z,1009.12
2022-08-30T08:09:51.859Z,1009.15
2022-08-30T08:12:52.134Z,1009.12
2022-08-30T08:15:51.963Z,1009.12
2022-08-30T08:18:51.867Z,1009.15
2022-08-30T08:22:04.049Z,1009.14
2022-08-30T08:24:51.862Z,1009.1
2022-08-30T08:27:51.860Z,1009.14
2022-08-30T08:30:51.922Z,1009.12
2022-08-30T08:33:51.905Z,1009.12
2022-08-30T08:36:51.863Z,1009.14
2022-08-30T08:39:51.859Z,1009.14
2022-08-30T08:42:51.857Z,1009.13
2022-08-30T08:45:51.924Z,1009.13
2022-08-30T08:48:59.836Z,1009.09
2022-08-30T08:51:51.859Z,1009.05
2022-08-30T08:54:51.865Z,1009.03
2022-08-30T08:57:51.859Z,1009.09
2022-08-30T09:00:51.866Z,1009.08
2022-08-30T09:03:51.861Z,1009.09
2022-08-30T09:06:51.869Z,1009.03
2022-08-30T09:09:51.867Z,1008.99
2022-08-30T09:12:51.871Z,1008.97
2022-08-30T09:15:54.586Z,1008.87
2022-08-30T09:18:54.601Z,1008.9
2022-08-30T09:21:52.848Z,1008.87
2022-08-30T09:24:51.874Z,1008.86
2022-08-30T09:27:51.874Z,1008.8
2022-08-30T09:30:51.916Z,1008.75
2022-08-30T09:33:51.869Z,1008.74
2022-08-30T09:36:51.876Z,1008.76
2022-08-30T09:39:51.868Z,1008.7
2022-08-30T09:42:51.872Z,1008.65
2022-08-30T09:45:51.900Z,1008.62
2022-08-30T09:48:51.875Z,1008.66
2022-08-30T09:51:51.872Z,1008.59
2022-08-30T09:54:51.964Z,1008.49
2022-08-30T09:57:51.871Z,1008.48
2022-08-30T10:00:51.887Z,1008.52
2022-08-30T10:03:51.877Z,1008.45
2022-08-30T10:06:51.877Z,1008.45
2022-08-30T10:09:51.870Z,1008.4
2022-08-30T10:12:51.873Z,1008.34
2022-08-30T10:15:51.886Z,1008.27
2022-08-30T10:18:51.878Z,1008.28
2022-08-30T10:21:51.865Z,1008.23
2022-08-30T10:24:51.886Z,1008.16
2022-08-30T10:27:51.873Z,1008.16
2022-08-30T10:30:51.882Z,1008.15
2022-08-30T10:33:51.881Z,1008.15
2022-08-30T10:36:51.872Z,1008.18
2022-08-30T10:39:51.898Z,1008.16
2022-08-30T10:42:51.876Z,1008.14
2022-08-30T10:45:51.886Z,1008.1
2022-08-30T10:48:51.878Z,1008.12
2022-08-30T10:51:51.889Z,1008.04
2022-08-30T10:54:51.881Z,1008.05
2022-08-30T10:57:51.877Z,1007.99
2022-08-30T11:00:51.914Z,1007.91
2022-08-30T11:03:51.878Z,1007.92
2022-08-30T11:06:53.918Z,1007.88
2022-08-30T11:09:51.893Z,1007.9
2022-08-30T11:12:51.876Z,1007.86
2022-08-30T11:15:51.905Z,1007.87
2022-08-30T11:18:52.170Z,1007.88
2022-08-30T11:21:51.893Z,1007.87
2022-08-30T11:24:51.891Z,1007.89
2022-08-30T11:27:51.894Z,1007.84
2022-08-30T11:30:51.888Z,1007.81
2022-08-30T11:33:51.887Z,1007.8
2022-08-30T11:36:51.890Z,1007.74
2022-08-30T11:39:51.946Z,1007.72
2022-08-30T11:42:51.895Z,1007.67
2022-08-30T11:45:51.916Z,1007.66
2022-08-30T11:48:53.984Z,1007.65
2022-08-30T11:51:58.165Z,1007.58
2022-08-30T11:54:53.147Z,1007.62
2022-08-30T11:57:51.904Z,1007.62
2022-08-30T12:00:53.043Z,1007.59
2022-08-30T12:03:51.903Z,1007.5
2022-08-30T12:06:51.923Z,1007.43
2022-08-30T12:09:51.914Z,1007.41
2022-08-30T12:12:51.920Z,1007.42
2022-08-30T12:15:52.335Z,1007.41
2022-08-30T12:18:51.916Z,1007.35
2022-08-30T12:21:51.916Z,1007.42
2022-08-30T12:24:51.931Z,1007.41
2022-08-30T12:27:51.925Z,1007.45
2022-08-30T12:30:51.912Z,1007.38
2022-08-30T12:33:51.938Z,1007.38
2022-08-30T12:36:51.920Z,1007.32
2022-08-30T12:39:52.693Z,1007.31
2022-08-30T12:42:51.942Z,1007.25
2022-08-30T12:45:51.983Z,1007.26
2022-08-30T12:48:51.942Z,1007.23
2022-08-30T12:51:51.927Z,1007.2
2022-08-30T12:54:51.953Z,1007.22
2022-08-30T12:57:51.930Z,1007.16
2022-08-30T13:00:52.016Z,1007.16
2022-08-30T13:03:51.937Z,1007.12
2022-08-30T13:06:51.933Z,1007.07
2022-08-30T13:09:51.927Z,1007.04
2022-08-30T13:12:51.931Z,1007.11
2022-08-30T13:15:51.971Z,1006.98
2022-08-30T13:18:51.930Z,1006.96
2022-08-30T13:21:51.926Z,1006.92
2022-08-30T13:24:51.932Z,1006.91
2022-08-30T13:27:51.933Z,1006.87
2022-08-30T13:30:51.936Z,1006.8
2022-08-30T13:33:51.942Z,1006.8
2022-08-30T13:36:51.938Z,1006.73
2022-08-30T13:39:51.939Z,1006.74
2022-08-30T13:42:51.941Z,1006.76
2022-08-30T13:45:52.033Z,1006.72
2022-08-30T13:48:51.937Z,1006.71
2022-08-30T13:52:09.681Z,1006.68
2022-08-30T13:54:51.986Z,1006.7
2022-08-30T13:57:55.943Z,1006.66
2022-08-30T14:00:53.797Z,1006.64
2022-08-30T14:04:15.639Z,1006.65
2022-08-30T14:07:16.623Z,1006.62
2022-08-30T14:09:53.125Z,1006.6
2022-08-30T14:12:53.361Z,1006.6
2022-08-30T14:16:26.417Z,1006.58
2022-08-30T14:18:51.964Z,1006.54
2022-08-30T14:21:51.959Z,1006.52
2022-08-30T14:24:51.960Z,1006.49
2022-08-30T14:27:51.967Z,1006.49
2022-08-30T14:30:51.967Z,1006.43
2022-08-30T14:33:52.067Z,1006.42
2022-08-30T14:36:51.983Z,1006.41
2022-08-30T14:39:51.960Z,1006.39
2022-08-30T14:42:51.970Z,1006.33
2022-08-30T14:45:52.031Z,1006.33
2022-08-30T14:48:51.967Z,1006.27
2022-08-30T14:51:51.958Z,1006.29
2022-08-30T14:54:55.448Z,1006.24
2022-08-30T14:57:51.959Z,1006.19
2022-08-30T15:00:52.012Z,1006.16
2022-08-30T15:03:52.007Z,1006.13
2022-08-30T15:06:51.976Z,1006.08
2022-08-30T15:09:51.968Z,1006.05
2022-08-30T15:12:51.964Z,1005.99
2022-08-30T15:15:52.013Z,1005.95
2022-08-30T15:18:51.987Z,1005.89
2022-08-30T15:21:51.978Z,1005.91
2022-08-30T15:24:51.984Z,1005.84
2022-08-30T15:27:51.989Z,1005.85
2022-08-30T15:30:51.982Z,1005.9
2022-08-30T15:33:51.984Z,1005.88
2022-08-30T15:36:51.985Z,1005.86
2022-08-30T15:39:51.987Z,1005.83
2022-08-30T15:42:51.995Z,1005.82
2022-08-30T15:45:51.993Z,1005.77
2022-08-30T15:48:51.994Z,1005.75
2022-08-30T15:51:53.830Z,1005.73
2022-08-30T15:54:51.988Z,1005.73
2022-08-30T15:57:51.990Z,1005.66
2022-08-30T16:00:52.039Z,1005.71
2022-08-30T16:03:51.995Z,1005.69
2022-08-30T16:06:51.998Z,1005.67
2022-08-30T16:09:51.997Z,1005.69
2022-08-30T16:12:52.003Z,1005.64
2022-08-30T16:15:52.068Z,1005.61
2022-08-30T16:18:53.667Z,1005.59
2022-08-30T16:21:52.018Z,1005.58
2022-08-30T16:24:52.027Z,1005.61
2022-08-30T16:27:52.022Z,1005.59
2022-08-30T16:30:52.007Z,1005.59
2022-08-30T16:33:52.606Z,1005.57
2022-08-30T16:36:52.014Z,1005.58
2022-08-30T16:39:52.027Z,1005.58
2022-08-30T16:42:52.039Z,1005.59
2022-08-30T16:45:52.326Z,1005.57
2022-08-30T16:48:52.033Z,1005.54
2022-08-30T16:51:52.574Z,1005.52
2022-08-30T16:54:52.449Z,1005.51
2022-08-30T16:57:52.018Z,1005.53
2022-08-30T17:00:52.089Z,1005.49
2022-08-30T17:03:52.029Z,1005.54
2022-08-30T17:06:52.019Z,1005.59
2022-08-30T17:09:52.032Z,1005.6
2022-08-30T17:12:52.027Z,1005.63
2022-08-30T17:15:52.089Z,1005.61
2022-08-30T17:18:52.022Z,1005.63
2022-08-30T17:21:52.046Z,1005.61
2022-08-30T17:24:52.030Z,1005.65
2022-08-30T17:27:52.021Z,1005.69
2022-08-30T17:30:52.026Z,1005.7
2022-08-30T17:33:52.032Z,1005.77
2022-08-30T17:36:52.031Z,1005.83
2022-08-30T17:39:52.036Z,1005.88
2022-08-30T17:42:52.034Z,1005.96
2022-08-30T17:45:52.036Z,1005.95
2022-08-30T17:48:56.652Z,1005.98
2022-08-30T17:51:56.243Z,1005.98
2022-08-30T17:54:52.035Z,1006
2022-08-30T17:57:52.037Z,1006
2022-08-30T18:00:52.055Z,1006.04
2022-08-30T18:03:55.788Z,1006.09
2022-08-30T18:06:52.038Z,1006.12
2022-08-30T18:09:52.033Z,1006.15
2022-08-30T18:12:52.029Z,1006.16
2022-08-30T18:15:52.085Z,1006.22
2022-08-30T18:18:55.682Z,1006.22
2022-08-30T18:21:52.037Z,1006.28
2022-08-30T18:24:52.033Z,1006.3
2022-08-30T18:27:57.218Z,1006.32
2022-08-30T18:30:52.040Z,1006.36
2022-08-30T18:33:52.045Z,1006.41
2022-08-30T18:36:52.046Z,1006.48
2022-08-30T18:39:52.036Z,1006.52
2022-08-30T18:42:52.038Z,1006.55
2022-08-30T18:45:52.040Z,1006.54
2022-08-30T18:48:52.034Z,1006.52
2022-08-30T18:51:52.037Z,1006.52
2022-08-30T18:54:52.857Z,1006.55
2022-08-30T18:57:52.043Z,1006.55
2022-08-30T19:00:52.838Z,1006.52
2022-08-30T19:03:52.038Z,1006.55
2022-08-30T19:06:52.041Z,1006.56
2022-08-30T19:09:52.039Z,1006.57
2022-08-30T19:12:52.038Z,1006.57
2022-08-30T19:15:52.041Z,1006.63
2022-08-30T19:18:52.046Z,1006.62
2022-08-30T19:21:52.044Z,1006.66
2022-08-30T19:24:52.044Z,1006.66
2022-08-30T19:27:52.045Z,1006.67
2022-08-30T19:30:52.042Z,1006.67
2022-08-30T19:33:52.077Z,1006.69
2022-08-30T19:36:52.040Z,1006.66
2022-08-30T19:39:52.044Z,1006.71
2022-08-30T19:42:52.055Z,1006.73
2022-08-30T19:45:52.040Z,1006.78
2022-08-30T19:48:52.044Z,1006.81
2022-08-30T19:51:52.055Z,1006.82
2022-08-30T19:54:52.050Z,1006.81
2022-08-30T19:57:52.055Z,1006.79
2022-08-30T20:00:54.170Z,1006.75
2022-08-30T20:03:52.061Z,1006.83
2022-08-30T20:06:52.049Z,1006.83
2022-08-30T20:09:52.048Z,1006.82
2022-08-30T20:12:52.043Z,1006.85
2022-08-30T20:15:55.655Z,1006.89
2022-08-30T20:18:52.057Z,1006.92
2022-08-30T20:21:52.045Z,1006.95
2022-08-30T20:24:52.047Z,1007.01
2022-08-30T20:27:52.069Z,1007.03
2022-08-30T20:30:52.109Z,1007.1
2022-08-30T20:33:52.049Z,1007.11
2022-08-30T20:36:52.047Z,1007.16
2022-08-30T20:39:52.049Z,1007.17
2022-08-30T20:42:52.055Z,1007.21
2022-08-30T20:45:52.110Z,1007.28
2022-08-30T20:48:52.046Z,1007.26
2022-08-30T20:51:54.260Z,1007.25
2022-08-30T20:54:53.568Z,1007.32
2022-08-30T20:57:52.061Z,1007.32
2022-08-30T21:00:52.050Z,1007.29
2022-08-30T21:03:52.048Z,1007.28
2022-08-30T21:06:52.064Z,1007.26
2022-08-30T21:09:52.050Z,1007.29
2022-08-30T21:12:52.047Z,1007.3
2022-08-30T21:15:52.054Z,1007.31
2022-08-30T21:18:52.044Z,1007.28
2022-08-30T21:21:52.048Z,1007.28
2022-08-30T21:24:52.047Z,1007.31
2022-08-30T21:27:52.047Z,1007.36
2022-08-30T21:30:52.125Z,1007.38
2022-08-30T21:33:52.058Z,1007.36
2022-08-30T21:36:52.065Z,1007.33
2022-08-30T21:39:52.052Z,1007.35
2022-08-30T21:42:52.049Z,1007.38
2022-08-30T21:45:52.078Z,1007.38
2022-08-30T21:48:52.049Z,1007.33
2022-08-30T21:51:52.053Z,1007.34
2022-08-30T21:54:52.051Z,1007.32
2022-08-30T21:57:52.053Z,1007.36
2022-08-30T22:00:52.091Z,1007.39
2022-08-30T22:03:52.051Z,1007.37
2022-08-30T22:06:52.054Z,1007.37
2022-08-30T22:09:52.050Z,1007.36
2022-08-30T22:12:52.201Z,1007.38
2022-08-30T22:15:52.079Z,1007.38
2022-08-30T22:18:52.066Z,1007.42
2022-08-30T22:21:52.069Z,1007.43
2022-08-30T22:24:52.065Z,1007.48
2022-08-30T22:27:52.073Z,1007.46
2022-08-30T22:30:52.080Z,1007.49
2022-08-30T22:33:52.076Z,1007.56
2022-08-30T22:36:52.062Z,1007.53
2022-08-30T22:39:52.074Z,1007.55
2022-08-30T22:42:52.077Z,1007.57
2022-08-30T22:45:52.143Z,1007.59
2022-08-30T22:48:52.066Z,1007.62
2022-08-30T22:51:52.077Z,1007.59
2022-08-30T22:54:52.081Z,1007.65
2022-08-30T22:57:52.083Z,1007.61
2022-08-30T23:00:54.618Z,1007.6
2022-08-30T23:03:52.066Z,1007.64
2022-08-30T23:06:52.082Z,1007.67
2022-08-30T23:09:52.072Z,1007.69
2022-08-30T23:12:52.093Z,1007.66
2022-08-30T23:15:52.083Z,1007.69
2022-08-30T23:18:52.076Z,1007.73
2022-08-30T23:21:52.068Z,1007.71
2022-08-30T23:24:52.075Z,1007.7
2022-08-30T23:27:52.076Z,1007.76
2022-08-30T23:30:52.078Z,1007.76
2022-08-30T23:33:52.085Z,1007.8
2022-08-30T23:36:52.078Z,1007.82
2022-08-30T23:39:52.084Z,1007.79
2022-08-30T23:42:52.069Z,1007.79
2022-08-30T23:45:52.147Z,1007.81
2022-08-30T23:48:52.382Z,1007.81
2022-08-30T23:51:52.074Z,1007.8
2022-08-30T23:54:52.071Z,1007.76
2022-08-30T23:57:52.071Z,1007.79
